Tribune, Canada
Current Conditions -  °F | °C
As of 10:55 PM on Sunday 21 Dec 2014 (Local Time) from KD50 Reporting Station
Scattered Clouds Scattered Clouds  
Wind Chill: -3°   Ceiling: Unl
Heat Index: -3°   Visibility: 10mi
Dew Point: -3°   Wind: 0mph
Humidity: 100%   Direction: NA
Pressure: 29.39"   Gusts: NA
Location:  49.25°N, 103.82°W
Report Text: KD50 220455Z AUTO 00000KT 10SM SCT110 M03/M03 A2939 RMK AO2
Loading
Personal Weather Stations






























Interactive Weather Map New forecast layout! Learn more

10-Day Weather Forecast

Advertisements
Track Severe Weather on mobile